Time;durP1;ratioP1;P1;durP2;ratioP2;P2;SDS_P1;SDS_P2;PMS_P1;PMS_P2;Temp;Humidity;BMP_temperature;BMP_pressure;BME280_temperature;BME280_humidity;BME280_pressure;Samples;Min_cycle;Max_cycle;Signal;HPM_P1;HPM_P2
2022/08/25 00:02:03;;;;;;;797.47;27.92;;;17.70;99.90;;;16.83;100.00;101866.44;5029908;28;20034;-76
2022/08/25 00:04:34;;;;;;;305.90;11.93;;;17.70;99.90;;;16.85;100.00;101866.38;5030006;28;20391;-76
2022/08/25 00:07:01;;;;;;;39.90;6.78;;;17.70;99.90;;;16.90;100.00;101861.66;5013111;28;20550;-76
2022/08/25 00:09:29;;;;;;;277.52;17.58;;;17.80;99.90;;;16.97;100.00;101860.34;5028976;28;20402;-76
2022/08/25 00:11:54;;;;;;;1074.07;31.30;;;17.80;99.90;;;16.98;100.00;101870.06;5030209;28;20553;-76
2022/08/25 00:14:26;;;;;;;99.72;8.57;;;17.80;99.90;;;16.97;100.00;101863.03;5029755;28;20033;-76
2022/08/25 00:16:53;;;;;;;630.55;20.20;;;17.80;99.90;;;16.95;100.00;101863.13;5037534;28;20034;-76
2022/08/25 00:19:23;;;;;;;504.98;14.55;;;17.80;99.90;;;16.90;100.00;101857.19;5029872;28;20068;-76
2022/08/25 00:21:49;;;;;;;10.43;4.22;;;17.80;99.90;;;16.87;100.00;101853.81;5030523;28;20033;-76
2022/08/25 00:24:20;;;;;;;453.05;12.32;;;17.70;99.90;;;16.83;100.00;101850.50;5030059;28;20037;-77
2022/08/25 00:26:51;;;;;;;192.48;8.65;;;17.70;99.90;;;16.81;100.00;101855.03;5028860;28;20120;-76
2022/08/25 00:29:19;;;;;;;256.73;9.75;;;17.70;99.90;;;16.80;100.00;101854.19;5013484;28;20120;-76
2022/08/25 00:31:47;;;;;;;758.80;20.65;;;17.70;99.90;;;16.80;100.00;101845.31;5013248;28;20032;-76
2022/08/25 00:34:21;;;;;;;180.68;10.98;;;17.70;99.90;;;16.79;100.00;101848.91;5028670;28;20022;-76
2022/08/25 00:36:47;;;;;;;1008.95;29.67;;;17.70;99.90;;;16.78;100.00;101848.06;5026619;28;20080;-76
2022/08/25 00:39:13;;;;;;;663.15;19.55;;;17.60;99.90;;;16.78;100.00;101847.19;5013556;28;20116;-76
2022/08/25 00:41:42;;;;;;;995.55;26.73;;;17.60;99.90;;;16.75;100.00;101850.88;5028407;28;20509;-76
2022/08/25 00:44:12;;;;;;;908.35;25.70;;;17.70;99.90;;;16.72;100.00;101843.06;5029443;28;20509;-76
2022/08/25 00:46:46;;;;;;;884.55;22.30;;;17.60;99.90;;;16.68;100.00;101853.97;5012722;28;20596;-76
2022/08/25 00:49:40;;;;;;;823.60;27.10;;;17.50;99.90;;;16.61;100.00;101856.94;5044861;28;20613;-76
2022/08/25 00:52:10;;;;;;;10.70;5.80;;;17.50;99.90;;;16.54;100.00;101850.25;5027086;28;20069;-76
2022/08/25 00:55:01;;;;;;;304.90;12.00;;;17.50;99.90;;;16.49;100.00;101844.31;5013015;28;20022;-76
2022/08/25 00:57:39;;;;;;;263.02;16.80;;;17.40;99.90;;;16.48;100.00;101839.94;5028946;28;20029;-76
2022/08/25 01:00:19;;;;;;;485.02;18.48;;;17.40;99.90;;;16.49;100.00;101839.00;5013219;28;20035;-77
2022/08/25 01:02:45;;;;;;;212.65;11.35;;;17.40;99.90;;;16.48;100.00;101845.25;5026071;28;20033;-76
2022/08/25 01:05:12;;;;;;;595.17;22.52;;;17.40;99.90;;;16.47;100.00;101848.84;5026408;28;20414;-76
2022/08/25 01:07:40;;;;;;;494.40;20.48;;;17.30;99.90;;;16.45;100.00;101842.75;5028937;28;20030;-76
2022/08/25 01:10:08;;;;;;;822.88;28.33;;;17.40;99.90;;;16.45;100.00;101850.72;5012897;28;20060;-75
2022/08/25 01:12:36;;;;;;;1627.55;62.28;;;17.30;99.90;;;16.44;100.00;101843.72;5011427;28;20037;-76
2022/08/25 01:15:05;;;;;;;463.13;27.95;;;17.30;99.90;;;16.43;100.00;101835.81;5022804;28;20033;-75
2022/08/25 01:17:43;;;;;;;236.02;19.15;;;17.30;99.90;;;16.40;100.00;101843.00;5029203;28;20076;-76
2022/08/25 01:20:09;;;;;;;106.38;14.07;;;17.40;99.90;;;16.41;100.00;101838.53;5027587;28;20041;-76
2022/08/25 01:22:36;;;;;;;729.13;38.67;;;17.30;99.90;;;16.40;100.00;101831.53;5028406;28;20060;-76
2022/08/25 01:25:16;;;;;;;594.70;33.40;;;17.30;99.90;;;16.41;100.00;101830.56;5012450;28;20083;-76
2022/08/25 01:27:41;;;;;;;247.07;16.80;;;17.30;99.90;;;16.41;100.00;101835.88;5027813;28;20478;-76
2022/08/25 01:30:08;;;;;;;61.72;14.25;;;17.30;99.90;;;16.40;100.00;101836.84;5028748;28;20038;-76
2022/08/25 01:32:34;;;;;;;512.78;33.65;;;17.30;99.90;;;16.42;100.00;101836.75;5011523;28;20028;-76
2022/08/25 01:35:00;;;;;;;1791.57;60.38;;;17.30;99.90;;;16.42;100.00;101842.06;5029682;28;20022;-76
2022/08/25 01:37:26;;;;;;;;;;;17.30;99.90;;;16.35;100.00;101844.22;5027647;28;20063;-76
2022/08/25 01:39:52;;;;;;;813.97;44.97;;;17.30;99.90;;;16.28;100.00;101843.66;5028517;28;19924;-76
2022/08/25 01:42:26;;;;;;;286.05;24.38;;;17.20;99.90;;;16.26;100.00;101837.56;5027735;28;20084;-76
2022/08/25 01:44:53;;;;;;;252.43;29.45;;;17.20;99.90;;;16.28;100.00;101841.00;5026762;28;20084;-75
2022/08/25 01:47:19;;;;;;;36.45;19.42;;;17.20;99.90;;;16.33;100.00;101841.63;5027555;28;20037;-76
2022/08/25 01:49:45;;;;;;;25.02;13.93;;;17.20;99.90;;;16.39;100.00;101837.75;5026666;28;20025;-76
2022/08/25 01:52:26;;;;;;;20.25;13.50;;;17.30;99.90;;;16.41;100.00;101835.88;5028087;28;20029;-76
2022/08/25 01:54:52;;;;;;;125.47;17.77;;;17.30;99.90;;;16.42;100.00;101834.09;5028958;28;21234;-76
2022/08/25 01:57:18;;;;;;;21.38;12.13;;;17.30;99.90;;;16.43;100.00;101831.34;5026672;28;20037;-75
2022/08/25 01:59:46;;;;;;;49.88;21.83;;;17.30;99.90;;;16.44;100.00;101825.09;5028080;28;20037;-76
2022/08/25 02:02:12;;;;;;;162.95;22.65;;;17.30;99.90;;;16.46;100.00;101828.53;5029356;28;20026;-75
2022/08/25 02:04:38;;;;;;;645.55;52.75;;;17.40;99.90;;;16.47;100.00;101830.25;5010358;28;20127;-75
2022/08/25 02:07:07;;;;;;;35.33;16.77;;;17.30;99.90;;;16.47;100.00;101830.25;5026518;28;20517;-76
2022/08/25 02:09:36;;;;;;;21.98;13.48;;;17.40;99.90;;;16.49;100.00;101832.81;5026950;28;20112;-75
2022/08/25 02:12:02;;;;;;;24.02;14.25;;;17.40;99.90;;;16.50;100.00;101832.75;5009116;28;20024;-76
2022/08/25 02:14:28;;;;;;;25.92;17.27;;;17.40;99.90;;;16.52;100.00;101833.53;5027281;28;20112;-76
2022/08/25 02:16:54;;;;;;;284.20;27.30;;;17.40;99.90;;;16.54;100.00;101831.66;5027613;28;20086;-76
2022/08/25 02:19:23;;;;;;;21.95;16.25;;;17.40;99.90;;;16.56;100.00;101831.53;5026627;28;20112;-76
2022/08/25 02:21:49;;;;;;;922.38;49.63;;;17.40;99.90;;;16.57;100.00;101823.50;5026438;28;20124;-76
2022/08/25 02:24:18;;;;;;;1702.10;72.47;;;17.40;99.90;;;16.61;100.00;101825.03;5011457;28;20053;-76
2022/08/25 02:26:44;;;;;;;1580.95;59.55;;;17.50;99.90;;;16.64;100.00;101831.13;5027914;28;20048;-75
2022/08/25 02:29:10;;;;;;;673.13;39.00;;;17.50;99.90;;;16.68;100.00;101827.38;5025934;28;20497;-76
2022/08/25 02:31:38;;;;;;;1150.65;42.88;;;17.60;99.90;;;16.69;100.00;101829.06;5027793;28;20389;-75
2022/08/25 02:34:05;;;;;;;1075.45;49.08;;;17.50;99.90;;;16.69;100.00;101829.06;5026361;28;20026;-76
2022/08/25 02:36:31;;;;;;;408.85;38.20;;;17.50;99.90;;;16.69;100.00;101829.06;5027300;28;20116;-76
2022/08/25 02:38:58;;;;;;;949.95;63.08;;;17.60;99.90;;;16.67;100.00;101822.97;5010791;28;20117;-75
2022/08/25 02:41:26;;;;;;;1034.88;52.50;;;17.60;99.90;;;16.68;100.00;101819.41;5027431;28;20037;-76
2022/08/25 02:43:52;;;;;;;312.52;33.90;;;17.50;99.90;;;16.67;100.00;101817.66;5026392;28;20073;-76
2022/08/25 02:46:20;;;;;;;97.15;26.27;;;17.50;99.90;;;16.66;100.00;101821.28;5026156;28;20126;-76
2022/08/25 02:48:47;;;;;;;37.30;19.67;;;17.50;99.90;;;16.60;100.00;101820.66;5027697;28;20474;-75
2022/08/25 02:51:15;;;;;;;32.10;17.25;;;17.50;99.90;;;16.64;100.00;101813.38;5010893;28;20029;-76
2022/08/25 02:53:44;;;;;;;43.67;22.52;;;17.60;99.90;;;16.69;100.00;101818.44;5026106;28;20711;-76
2022/08/25 02:56:12;;;;;;;43.22;17.30;;;17.60;99.90;;;16.72;100.00;101818.28;5010829;28;20045;-75
2022/08/25 02:58:40;;;;;;;85.43;23.00;;;17.60;99.90;;;16.73;100.00;101796.91;5027391;28;20065;-76
2022/08/25 03:01:10;;;;;;;248.25;36.40;;;17.60;99.90;;;16.73;100.00;101798.72;5027828;28;20030;-76
2022/08/25 03:03:36;;;;;;;54.67;26.73;;;17.60;99.90;;;16.68;100.00;101800.78;5024990;28;20493;-75
2022/08/25 03:06:01;;;;;;;61.28;26.95;;;17.60;99.90;;;16.69;100.00;101807.81;5026948;28;20504;-76
2022/08/25 03:08:29;;;;;;;60.33;25.50;;;17.60;99.90;;;16.68;100.00;101796.31;5026956;28;20037;-76
2022/08/25 03:10:57;;;;;;;50.42;23.50;;;17.60;99.90;;;16.72;100.00;101808.50;5027336;28;20393;-75
2022/08/25 03:13:23;;;;;;;49.17;24.23;;;17.60;99.90;;;16.73;100.00;101804.03;5027080;28;20100;-76
2022/08/25 03:15:49;;;;;;;45.22;24.13;;;17.60;99.90;;;16.75;100.00;101805.66;5026355;28;20409;-75
2022/08/25 03:18:15;;;;;;;67.57;28.58;;;17.70;99.90;;;16.77;100.00;101802.91;5014566;28;20406;-75
2022/08/25 03:20:41;;;;;;;66.60;26.80;;;17.70;99.90;;;16.79;100.00;101791.25;5014577;28;20029;-75
2022/08/25 03:23:07;;;;;;;40.97;21.35;;;17.70;99.90;;;16.82;100.00;101795.56;5029860;28;20162;-75
2022/08/25 03:28:18;;;;;;;37.38;21.90;;;17.80;99.90;;;16.85;100.00;101794.56;5031611;28;20521;-75
2022/08/25 03:30:44;;;;;;;38.47;19.38;;;17.80;99.90;;;16.87;100.00;101798.84;5031153;28;20030;-76
2022/08/25 03:33:11;;;;;;;38.97;20.55;;;17.80;99.90;;;16.97;100.00;101796.50;5028887;28;20053;-76
2022/08/25 03:35:37;;;;;;;35.75;20.30;;;17.90;99.90;;;17.05;100.00;101801.41;5035896;22;20135;-76
2022/08/25 03:38:04;;;;;;;34.47;18.67;;;18.00;99.90;;;17.05;100.00;101798.75;5041418;28;20111;-76
2022/08/25 03:40:32;;;;;;;38.78;19.55;;;18.00;99.90;;;17.16;100.00;101799.00;5028287;28;20042;-76
2022/08/25 03:42:58;;;;;;;41.50;21.13;;;18.10;99.90;;;17.22;100.00;101803.97;5040575;28;20021;-75
2022/08/25 03:45:24;;;;;;;47.53;20.88;;;18.10;99.90;;;17.28;100.00;101808.94;5039652;28;20625;-76
2022/08/25 03:47:51;;;;;;;29.00;17.38;;;18.10;99.90;;;17.28;100.00;101803.63;5019806;28;20026;-76
2022/08/25 03:50:20;;;;;;;35.22;16.88;;;18.20;99.90;;;17.27;100.00;101806.34;5020961;28;20127;-75
2022/08/25 03:52:53;;;;;;;57.03;25.80;;;18.10;99.90;;;17.22;100.00;101803.97;5023354;28;20033;-76
2022/08/25 03:55:20;;;;;;;52.88;24.27;;;18.10;99.90;;;17.13;100.00;101794.72;5022429;28;20022;-76
2022/08/25 03:57:46;;;;;;;48.03;24.45;;;18.00;99.90;;;17.10;100.00;101799.34;5020482;28;20072;-75
2022/08/25 04:00:12;;;;;;;35.03;19.00;;;18.00;99.90;;;17.08;100.00;101802.06;5021179;28;20029;-75
2022/08/25 04:02:39;;;;;;;32.20;17.85;;;18.00;99.90;;;17.08;100.00;101799.41;5020344;28;20588;-75
2022/08/25 04:05:06;;;;;;;49.13;20.30;;;18.00;99.90;;;17.11;100.00;101801.91;5020821;28;20045;-76
2022/08/25 04:07:31;;;;;;;38.88;20.33;;;18.00;99.90;;;17.13;100.00;101797.38;5022677;28;20084;-75
2022/08/25 04:09:57;;;;;;;46.03;20.73;;;18.00;99.90;;;17.17;100.00;101796.25;5022677;28;20030;-75
2022/08/25 04:12:23;;;;;;;38.95;19.15;;;18.00;99.90;;;17.26;100.00;101800.19;5020253;28;20060;-75
2022/08/25 04:14:50;;;;;;;36.83;18.08;;;18.10;99.90;;;17.35;100.00;101796.13;5018653;28;20510;-75
2022/08/25 04:17:16;;;;;;;40.85;18.58;;;18.20;99.90;;;17.45;100.00;101801.75;5022178;28;20145;-75
2022/08/25 04:19:50;;;;;;;42.03;20.88;;;18.30;99.90;;;17.53;100.00;101796.84;5020501;28;20034;-75
2022/08/25 04:22:16;;;;;;;34.47;17.48;;;18.40;99.90;;;17.60;100.00;101803.50;5022063;28;20081;-75
2022/08/25 04:24:42;;;;;;;40.30;18.42;;;18.40;99.90;;;17.71;100.00;101800.22;5068795;22;20054;-80
2022/08/25 04:27:08;;;;;;;35.42;17.25;;;18.50;99.90;;;17.80;100.00;101805.88;5029258;28;20374;-81
2022/08/25 04:29:41;;;;;;;34.80;16.63;;;18.60;99.90;;;17.90;100.00;101805.34;5049955;28;20032;-80
2022/08/25 04:32:07;;;;;;;39.58;16.30;;;18.70;99.90;;;17.97;100.00;101810.22;5068782;28;20054;-79
2022/08/25 04:34:33;;;;;;;30.83;16.23;;;18.70;99.90;;;18.08;100.00;101814.00;5045393;28;20078;-80
2022/08/25 04:37:06;;;;;;;35.25;17.17;;;18.80;99.90;;;18.15;100.00;101816.22;5028592;28;20029;-80
2022/08/25 04:39:33;;;;;;;37.30;16.52;;;18.80;99.90;;;18.20;100.00;101813.28;5010836;28;20038;-80
2022/08/25 04:41:59;;;;;;;30.67;16.48;;;18.90;99.90;;;18.28;100.00;101804.81;5012990;28;20025;-80
2022/08/25 04:44:25;;;;;;;35.67;18.55;;;18.90;99.90;;;18.28;100.00;101803.00;5011488;28;20033;-80
2022/08/25 04:46:51;;;;;;;28.05;15.25;;;19.00;99.90;;;18.36;100.00;101808.72;5011818;28;20053;-80
2022/08/25 04:49:23;;;;;;;34.60;15.65;;;19.10;99.90;;;18.62;100.00;101809.75;5028030;28;20033;-80
2022/08/25 04:51:48;;;;;;;32.38;16.58;;;19.60;99.90;;;19.75;100.00;101821.13;5028337;28;20033;-80
2022/08/25 04:54:16;;;;;;;44.33;21.02;;;20.30;99.90;;;20.96;100.00;101814.44;5028564;28;20083;-79
2022/08/25 04:56:43;;;;;;;29.65;16.50;;;21.10;99.90;;;22.47;100.00;101809.19;5027284;28;20120;-80
2022/08/25 04:59:14;;;;;;;24.23;13.02;;;22.10;99.90;;;24.21;95.47;101811.72;5028441;28;20044;-81
2022/08/25 05:01:42;;;;;;;31.50;12.55;;;23.10;99.90;;;25.72;83.05;101806.19;5015744;28;20075;-79
2022/08/25 05:04:11;;;;;;;22.20;9.73;;;24.20;99.90;;;27.07;75.39;101814.75;5008054;28;20042;-80
2022/08/25 05:06:42;;;;;;;33.08;10.45;;;25.20;99.90;;;28.21;70.89;101814.88;5009888;28;20063;-80
2022/08/25 05:09:08;;;;;;;21.67;8.13;;;26.00;99.90;;;29.20;65.59;101810.66;5015752;28;20101;-80
2022/08/25 05:11:34;;;;;;;23.58;7.68;;;26.80;99.90;;;30.11;63.17;101811.47;5015475;28;20037;-80
2022/08/25 05:14:01;;;;;;;20.92;7.13;;;27.50;99.90;;;31.00;60.32;101817.56;5049249;28;20485;-80
2022/08/25 05:16:28;;;;;;;17.00;6.40;;;28.10;99.90;;;31.19;59.00;101818.97;5030183;28;20035;-80
2022/08/25 05:18:58;;;;;;;16.85;6.57;;;28.50;99.90;;;31.25;58.75;101826.41;5016825;28;20121;-80
2022/08/25 05:21:27;;;;;;;20.02;6.20;;;28.60;99.90;;;30.92;59.60;101830.38;5031811;28;20044;-80
2022/08/25 05:24:05;;;;;;;13.98;5.22;;;28.70;99.90;;;31.77;57.55;101832.09;5029033;28;21120;-80
2022/08/25 05:26:35;;;;;;;13.45;5.22;;;29.20;99.90;;;33.02;54.57;101837.63;5049887;28;20032;-80
2022/08/25 05:29:05;;;;;;;17.70;5.72;;;29.80;99.90;;;33.44;53.91;101833.25;5013545;28;20025;-79
2022/08/25 05:31:32;;;;;;;15.23;4.97;;;29.90;99.90;;;31.21;57.39;101827.78;5030139;28;20025;-80
2022/08/25 05:33:59;;;;;;;17.02;6.13;;;29.30;99.90;;;29.57;61.96;101825.59;5029065;28;20448;-79
2022/08/25 05:36:28;;;;;;;14.95;5.57;;;28.90;99.90;;;29.98;61.17;101824.72;5027672;28;20045;-80
2022/08/25 05:38:59;;;;;;;21.77;5.80;;;29.00;99.90;;;32.53;55.83;101832.00;5028930;28;20065;-80
2022/08/25 05:41:29;;;;;;;13.45;4.93;;;29.70;99.90;;;34.32;51.73;101824.66;5030348;28;20037;-80
2022/08/25 05:43:55;;;;;;;12.00;4.85;;;30.50;99.90;;;35.51;48.56;101826.91;5013370;28;20034;-80
2022/08/25 05:46:24;;;;;;;13.35;4.75;;;31.40;99.90;;;36.35;47.50;101829.97;5012099;28;20025;-79
2022/08/25 05:48:53;;;;;;;14.27;4.90;;;32.00;99.90;;;36.73;46.09;101837.44;5027465;28;20045;-80
2022/08/25 05:51:20;;;;;;;15.05;4.47;;;32.60;99.90;;;37.49;44.91;101838.44;5025181;28;20021;-80
2022/08/25 05:53:54;;;;;;;14.27;4.45;;;33.00;99.90;;;37.72;44.36;101837.84;5024844;28;20434;-80
2022/08/25 05:56:20;;;;;;;12.88;4.53;;;33.30;99.90;;;37.67;43.84;101846.78;5026076;28;20375;-80
2022/08/25 05:58:47;;;;;;;15.60;4.88;;;33.00;99.90;;;34.57;49.14;101846.84;5022412;28;20272;-80
2022/08/25 06:04:18;;;;;;;13.10;4.35;;;33.40;99.90;;;37.95;43.45;101859.19;5026862;28;20529;-80
2022/08/25 06:06:44;;;;;;;14.43;4.38;;;33.50;99.90;;;35.83;46.49;101849.03;5026220;28;20040;-80
2022/08/25 06:09:10;;;;;;;13.38;4.70;;;33.60;99.90;;;37.64;44.10;101863.69;5026476;28;20068;-79
2022/08/25 06:11:38;;;;;;;11.95;3.92;;;33.90;99.90;;;36.98;44.13;101867.72;5024918;28;20025;-80
2022/08/25 06:14:14;;;;;;;14.40;4.40;;;33.60;99.90;;;34.74;48.13;101868.44;5020950;28;20026;-80
2022/08/25 06:16:40;;;;;;;17.10;5.07;;;32.70;99.90;;;32.46;52.63;101862.72;5026051;28;20041;-81
2022/08/25 06:19:16;;;;;;;13.75;5.00;;;31.60;99.90;;;30.66;56.62;101858.66;5007906;28;20041;-81
2022/08/25 06:21:42;;;;;;;15.70;4.47;;;30.50;99.90;;;29.11;61.89;101865.03;5001954;28;20109;-81
2022/08/25 06:24:09;;;;;;;18.80;4.90;;;29.60;99.90;;;28.23;64.42;101861.59;5005539;28;20433;-81
2022/08/25 06:26:36;;;;;;;13.95;5.07;;;28.70;99.90;;;27.00;68.44;101846.13;5023424;28;20038;-81
2022/08/25 06:29:09;;;;;;;14.43;5.15;;;27.90;99.90;;;26.36;71.92;101835.16;5026342;28;20540;-81
2022/08/25 06:31:36;;;;;;;14.75;5.97;;;27.10;99.90;;;25.90;74.51;101823.38;5023657;28;20467;-79
2022/08/25 06:34:01;;;;;;;14.23;5.45;;;26.70;99.90;;;25.91;75.92;101813.44;5006178;28;20576;-81
2022/08/25 06:36:27;;;;;;;19.95;4.88;;;26.40;99.90;;;25.81;75.43;101821.53;5008924;28;20089;-81
2022/08/25 06:38:55;;;;;;;16.13;4.78;;;26.20;99.90;;;25.77;76.58;101815.56;5025081;28;20046;-80
2022/08/25 06:41:21;;;;;;;18.83;5.20;;;25.90;99.90;;;25.10;79.60;101817.25;5009280;28;20390;-81
2022/08/25 06:43:47;;;;;;;14.93;4.32;;;25.60;99.90;;;24.51;81.25;101810.00;5024319;28;20398;-81
2022/08/25 06:46:25;;;;;;;16.88;4.47;;;25.00;99.90;;;23.69;84.19;101810.78;5022475;28;20037;-81
2022/08/25 06:48:56;;;;;;;15.70;4.70;;;24.70;99.90;;;23.84;86.15;101812.19;5015564;28;20558;-81
2022/08/25 06:51:25;;;;;;;18.38;4.53;;;25.20;99.90;;;27.49;71.85;101818.72;5005817;28;20026;-81
2022/08/25 06:53:55;;;;;;;22.73;4.75;;;26.50;99.90;;;29.50;63.98;101807.44;5014930;28;20429;-80
2022/08/25 06:56:21;;;;;;;14.20;4.13;;;28.00;99.90;;;30.98;59.20;101802.47;5029328;28;20021;-81
2022/08/25 06:58:47;;;;;;;18.13;4.28;;;29.50;99.90;;;31.56;55.94;101787.41;5022439;28;20080;-82
2022/08/25 07:01:22;;;;;;;11.00;3.65;;;29.90;99.90;;;31.98;56.69;101802.31;5021777;28;20482;-81
2022/08/25 07:03:49;;;;;;;16.85;3.97;;;30.90;99.90;;;33.07;53.28;101801.63;5014405;28;20030;-81
2022/08/25 07:06:17;;;;;;;14.90;3.72;;;31.80;99.90;;;33.89;51.54;101802.97;5003484;28;21020;-81
2022/08/25 07:08:43;;;;;;;12.13;3.58;;;32.80;99.90;;;35.05;48.66;101796.72;5016534;28;20027;-82
2022/08/25 07:11:16;;;;;;;14.77;3.97;;;33.30;99.90;;;34.58;49.56;101798.47;5006351;28;20029;-81
2022/08/25 07:13:44;;;;;;;19.35;3.55;;;33.60;99.30;;;34.42;48.85;101794.22;4999274;28;20551;-81
2022/08/25 07:16:10;;;;;;;13.13;4.32;;;33.60;97.90;;;33.39;50.74;101791.19;5023295;28;20121;-82
2022/08/25 07:18:35;;;;;;;15.02;4.03;;;33.00;98.60;;;32.38;53.30;101808.31;5004709;28;20125;-81
2022/08/25 07:21:06;;;;;;;15.30;4.32;;;33.00;98.80;;;33.60;50.46;101806.72;5005206;28;20034;-80
2022/08/25 07:23:32;;;;;;;12.70;3.83;;;32.90;98.30;;;33.01;50.68;101800.47;5007140;28;20402;-80
2022/08/25 07:26:19;;;;;;;11.73;3.67;;;33.10;98.30;;;32.95;50.07;101809.44;5031538;28;20038;-82
2022/08/25 07:28:51;;;;;;;18.67;4.95;;;32.00;98.70;;;30.35;56.36;101809.72;5004387;28;20659;-81
2022/08/25 07:31:17;;;;;;;19.30;4.40;;;30.50;99.90;;;28.45;61.60;101818.69;4997646;28;20053;-81
2022/08/25 07:36:33;;;;;;;19.63;4.10;;;29.70;99.90;;;30.20;59.02;101817.72;5003011;28;20038;-82
2022/08/25 07:39:03;;;;;;;12.35;3.45;;;30.60;99.90;;;31.89;54.71;101808.84;5008682;28;20034;-80
2022/08/25 07:41:30;;;;;;;15.40;4.32;;;31.00;99.90;;;29.91;57.92;101810.16;5019074;28;20037;-81
2022/08/25 07:43:56;;;;;;;13.38;4.00;;;29.90;99.90;;;27.88;63.30;101815.66;5022631;28;20487;-81
2022/08/25 07:46:24;;;;;;;17.45;4.43;;;28.90;99.90;;;26.75;66.72;101807.16;5005944;28;20065;-81
2022/08/25 07:48:50;;;;;;;19.88;4.43;;;28.00;99.90;;;26.39;68.39;101810.59;5024492;28;20029;-81
2022/08/25 07:51:16;;;;;;;20.20;4.47;;;27.90;99.90;;;28.05;64.85;101808.50;5001419;28;20612;-80
2022/08/25 07:53:42;;;;;;;12.65;4.00;;;28.60;99.90;;;29.37;61.79;101802.53;5022798;28;20022;-81
2022/08/25 07:56:11;;;;;;;13.32;3.85;;;28.70;99.90;;;30.21;58.15;101800.38;5026124;28;20030;-81
2022/08/25 07:58:39;;;;;;;11.65;4.35;;;30.40;99.90;;;30.83;57.61;101807.78;5022373;28;20692;-81
2022/08/25 08:01:25;;;;;;;12.55;3.95;;;30.60;99.90;;;29.48;58.34;101804.06;5008906;28;20111;-81
2022/08/25 08:03:52;;;;;;;14.10;4.73;;;30.10;99.90;;;28.60;61.67;101800.00;5021113;28;20030;-81
2022/08/25 08:06:30;;;;;;;24.58;4.40;;;29.40;99.90;;;28.50;62.88;101810.13;5025908;28;20301;-81
2022/08/25 08:08:56;;;;;;;9.07;3.88;;;29.20;99.90;;;28.36;63.37;101812.41;5024732;28;20438;-80
2022/08/25 08:11:39;;;;;;;18.27;3.72;;;29.00;99.90;;;28.67;63.52;101802.91;5023276;28;20041;-81
2022/08/25 08:14:08;;;;;;;13.52;3.75;;;28.70;99.90;;;27.70;65.14;101800.28;5007274;28;20091;-81
2022/08/25 08:16:34;;;;;;;11.65;3.63;;;28.40;99.90;;;27.64;66.25;101806.31;5005798;28;20493;-80
2022/08/25 08:19:01;;;;;;;14.18;3.65;;;28.40;99.90;;;27.91;65.21;101799.97;5017463;28;20087;-80
2022/08/25 08:21:38;;;;;;;14.18;3.97;;;28.20;99.90;;;27.58;66.54;101799.72;5017583;28;20056;-81
2022/08/25 08:24:07;;;;;;;19.58;4.15;;;28.30;99.90;;;28.43;64.38;101805.31;5007183;28;20029;-81
2022/08/25 08:26:33;;;;;;;12.73;3.70;;;28.50;99.90;;;28.27;63.45;101801.69;5023690;28;20026;-81
2022/08/25 08:28:59;;;;;;;11.40;3.85;;;28.30;99.90;;;27.50;64.28;101798.78;5022869;28;20395;-81
2022/08/25 08:31:31;;;;;;;11.82;3.50;;;28.50;99.90;;;28.40;62.49;101797.53;5009725;28;20021;-81
2022/08/25 08:33:57;;;;;;;12.60;3.63;;;28.90;99.90;;;29.20;61.11;101791.69;5025404;28;20026;-80
2022/08/25 08:36:24;;;;;;;16.63;3.83;;;29.10;99.90;;;28.64;61.23;101793.25;5017394;28;20083;-80
2022/08/25 08:38:51;;;;;;;12.93;3.45;;;28.70;99.90;;;27.39;64.02;101797.19;5006659;28;20161;-82
2022/08/25 08:44:44;;;;;;;26.75;6.97;;;27.00;99.90;;;26.04;69.66;101789.66;5019240;28;20044;-81
2022/08/25 08:47:35;;;;;;;13.43;4.55;;;27.20;99.90;;;27.39;65.21;101779.09;5025228;28;20026;-81
2022/08/25 08:50:48;;;;;;;9.18;3.42;;;27.80;99.90;;;28.11;63.45;101786.22;5021358;28;20034;-81
2022/08/25 08:53:42;;;;;;;12.57;3.78;;;28.30;99.90;;;28.37;62.05;101787.00;4994178;28;20037;-80
2022/08/25 08:56:24;;;;;;;13.35;3.80;;;28.80;99.90;;;28.90;60.33;101784.13;5022522;28;20026;-80
2022/08/25 08:58:57;;;;;;;14.60;3.45;;;29.00;99.90;;;29.03;60.94;101787.22;5012974;28;20032;-80
2022/08/25 09:01:56;;;;;;;12.50;4.07;;;29.10;99.90;;;28.37;61.91;101784.28;5010088;28;20505;-80
2022/08/25 09:04:34;;;;;;;12.98;3.40;;;28.60;99.90;;;27.87;63.88;101781.50;5003049;28;20037;-80
2022/08/25 09:07:05;;;;;;;22.40;3.85;;;28.20;99.90;;;27.23;65.53;101780.81;5001907;28;20077;-81
2022/08/25 09:09:41;;;;;;;11.18;3.63;;;28.00;99.90;;;27.45;67.42;101771.34;5002404;28;20104;-80
2022/08/25 09:12:40;;;;;;;;;;;28.10;99.90;;;27.06;66.51;101764.38;5024757;28;20041;-79
2022/08/25 09:15:17;;;;;;;16.52;3.58;;;27.70;99.90;;;27.09;68.25;101758.69;5031054;28;19920;-79
2022/08/25 09:18:07;;;;;;;14.57;4.78;;;27.70;99.90;;;26.85;66.19;101753.91;5016022;28;20087;-80
2022/08/25 09:20:57;;;;;;;16.50;3.70;;;27.20;99.90;;;26.48;68.26;101748.56;5016125;28;20038;-80
2022/08/25 09:24:05;;;;;;;17.02;4.03;;;27.00;99.90;;;26.32;69.45;101751.91;5015127;28;20033;-80
2022/08/25 09:27:20;;;;;;;20.60;3.38;;;27.00;99.90;;;26.01;67.67;101748.66;5005676;28;20030;-80
2022/08/25 09:30:15;;;;;;;12.20;3.05;;;26.80;99.90;;;25.56;68.80;101748.31;4972599;28;20082;-81
2022/08/25 09:33:02;;;;;;;10.80;3.35;;;26.60;99.90;;;25.93;70.43;101743.97;4959294;28;20038;-81
2022/08/25 09:35:38;;;;;;;15.80;3.83;;;26.70;99.90;;;26.21;68.81;101742.16;4994644;28;20042;-81
2022/08/25 09:38:18;;;;;;;14.40;3.47;;;26.70;99.90;;;26.05;68.35;101742.81;4998991;28;20045;-79
2022/08/25 09:40:53;;;;;;;17.90;3.83;;;26.30;99.90;;;25.43;70.53;101736.97;5015147;28;20040;-81
2022/08/25 09:43:40;;;;;;;12.07;3.67;;;26.20;99.90;;;25.87;70.71;101739.97;5014586;28;20078;-80
2022/08/25 09:46:28;;;;;;;;;;;26.50;99.90;;;25.89;69.35;101729.09;5019398;28;20069;-80
2022/08/25 09:48:58;;;;;;;12.80;3.35;;;26.40;99.90;;;25.84;70.16;101732.19;5015310;28;19924;-79
2022/08/25 09:51:43;;;;;;;16.42;3.55;;;26.60;99.90;;;26.16;68.45;101726.41;4996265;28;20116;-80
2022/08/25 09:54:25;;;;;;;15.70;3.95;;;27.00;99.90;;;26.94;68.98;101735.91;4998514;28;20127;-80
2022/08/25 09:57:07;;;;;;;10.63;3.33;;;27.00;99.90;;;27.32;66.91;101731.19;5020632;28;20087;-79
2022/08/25 09:59:35;;;;;;;13.82;3.38;;;27.70;99.90;;;27.33;65.73;101728.34;5012363;28;20037;-79
2022/08/25 10:02:28;;;;;;;12.82;3.38;;;27.80;99.90;;;27.54;65.97;101728.00;5021822;28;20046;-79
2022/08/25 10:04:55;;;;;;;13.43;3.45;;;27.90;99.90;;;27.37;66.30;101734.28;5030884;28;20064;-80
2022/08/25 10:07:51;;;;;;;9.50;3.30;;;27.40;99.90;;;25.84;68.93;101724.09;5020778;28;20095;-80
2022/08/25 10:10:28;;;;;;;11.65;4.40;;;26.90;99.90;;;25.98;70.22;101715.56;5003176;28;20064;-80
2022/08/25 10:12:59;;;;;;;19.55;4.00;;;26.70;99.90;;;25.76;71.26;101714.03;5019982;28;20047;-80
2022/08/25 10:15:37;;;;;;;13.48;3.63;;;26.60;99.90;;;25.93;71.27;101706.22;5022672;28;20061;-80
2022/08/25 10:18:28;;;;;;;19.55;3.42;;;26.50;99.90;;;25.85;69.60;101704.22;5000316;28;20508;-79
2022/08/25 10:21:17;;;;;;;12.95;3.10;;;26.70;99.90;;;26.31;70.47;101696.25;5019259;28;20050;-80
2022/08/25 10:23:56;;;;;;;11.73;3.72;;;26.80;99.90;;;26.40;68.99;101681.81;5000535;28;20034;-79
2022/08/25 10:26:42;;;;;;;14.20;3.30;;;26.80;99.90;;;25.95;68.50;101696.13;5002491;28;20037;-80
2022/08/25 10:29:51;;;;;;;13.77;3.30;;;26.80;99.90;;;26.28;69.32;101696.53;5003719;28;20037;-80